<?xml version="1.0" encoding="UTF-8"?><gpx xmlns="http://www.topografix.com/GPX/1/1" xmlns:xsi="http://www.w3.org/2001/XMLSchema-instance" creator="komoot gpx writer" version="1.1" xsi:schemaLocation="http://www.topografix.com/GPX/1/1 http://www.topografix.com/GPX/1/1/gpx.xsd">

	<metadata>
		<name>Ungeheuerklamm – Wartturm Runde von Weingarten</name>
		<desc/>
		<link href="http://www.komoot.de">
			<text>komoot homepage</text>
			<type>text/html</type>
		</link>
	</metadata>
	
<trk>
<name>Ungeheuerklamm – Wartturm Runde von Weingarten</name>
<trkseg>
<trkpt lat="49.040218" lon="8.543395">
<ele>205</ele>
<time>2018-07-15T15:34:15Z</time>
</trkpt>
<trkpt lat="49.040022" lon="8.543199">
<ele>204.3</ele>
<time>2018-07-15T15:34:40Z</time>
</trkpt>
<trkpt lat="49.03986" lon="8.543118999999999">
<ele>204.60000000000002</ele>
<time>2018-07-15T15:34:58Z</time>
</trkpt>
<trkpt lat="49.039705999999995" lon="8.543149999999999">
<ele>204.20000000000002</ele>
<time>2018-07-15T15:35:15Z</time>
</trkpt>
<trkpt lat="49.039446" lon="8.54341">
<ele>204.3</ele>
<time>2018-07-15T15:35:46Z</time>
</trkpt>
<trkpt lat="49.039242" lon="8.54382">
<ele>204.70000000000002</ele>
<time>2018-07-15T15:36:21Z</time>
</trkpt>
<trkpt lat="49.039189" lon="8.54401">
<ele>204.4</ele>
<time>2018-07-15T15:36:35Z</time>
</trkpt>
<trkpt lat="49.039301" lon="8.544094">
<ele>205.1</ele>
<time>2018-07-15T15:36:50Z</time>
</trkpt>
<trkpt lat="49.039236" lon="8.544685999999999">
<ele>205.9</ele>
<time>2018-07-15T15:37:33Z</time>
</trkpt>
<trkpt lat="49.039320000000004" lon="8.544832">
<ele>206.1</ele>
<time>2018-07-15T15:37:46Z</time>
</trkpt>
<trkpt lat="49.039623000000006" lon="8.544936">
<ele>207.6</ele>
<time>2018-07-15T15:38:23Z</time>
</trkpt>
<trkpt lat="49.039976" lon="8.545183999999999">
<ele>209.7</ele>
<time>2018-07-15T15:39:09Z</time>
</trkpt>
<trkpt lat="49.040923" lon="8.546684999999998">
<ele>217.1</ele>
<time>2018-07-15T15:41:51Z</time>
</trkpt>
<trkpt lat="49.041626" lon="8.547781999999998">
<ele>219.1</ele>
<time>2018-07-15T15:43:39Z</time>
</trkpt>
<trkpt lat="49.041095" lon="8.548787999999998">
<ele>218.2</ele>
<time>2018-07-15T15:45:06Z</time>
</trkpt>
<trkpt lat="49.041755" lon="8.549231999999998">
<ele>216.1</ele>
<time>2018-07-15T15:46:22Z</time>
</trkpt>
<trkpt lat="49.042192" lon="8.549458999999999">
<ele>214.1</ele>
<time>2018-07-15T15:47:13Z</time>
</trkpt>
<trkpt lat="49.042591" lon="8.549601">
<ele>212</ele>
<time>2018-07-15T15:47:58Z</time>
</trkpt>
<trkpt lat="49.043068" lon="8.549615">
<ele>209.7</ele>
<time>2018-07-15T15:48:50Z</time>
</trkpt>
<trkpt lat="49.043321" lon="8.549560999999999">
<ele>208.6</ele>
<time>2018-07-15T15:49:18Z</time>
</trkpt>
<trkpt lat="49.044063" lon="8.549285999999999">
<ele>205.2</ele>
<time>2018-07-15T15:50:42Z</time>
</trkpt>
<trkpt lat="49.044158" lon="8.549147999999999">
<ele>204.6</ele>
<time>2018-07-15T15:50:56Z</time>
</trkpt>
<trkpt lat="49.044251" lon="8.548981">
<ele>203.9</ele>
<time>2018-07-15T15:51:12Z</time>
</trkpt>
<trkpt lat="49.044363000000004" lon="8.548553">
<ele>202.5</ele>
<time>2018-07-15T15:51:45Z</time>
</trkpt>
<trkpt lat="49.044394000000004" lon="8.548254">
<ele>201.6</ele>
<time>2018-07-15T15:52:07Z</time>
</trkpt>
<trkpt lat="49.044431" lon="8.548015">
<ele>200.79999999999998</ele>
<time>2018-07-15T15:52:24Z</time>
</trkpt>
<trkpt lat="49.044568000000005" lon="8.547481999999999">
<ele>198.99999999999997</ele>
<time>2018-07-15T15:53:06Z</time>
</trkpt>
<trkpt lat="49.04471900000001" lon="8.546997">
<ele>197.29999999999998</ele>
<time>2018-07-15T15:53:45Z</time>
</trkpt>
<trkpt lat="49.044821000000006" lon="8.546769999999999">
<ele>196.39999999999998</ele>
<time>2018-07-15T15:54:04Z</time>
</trkpt>
<trkpt lat="49.04478600000001" lon="8.546555999999999">
<ele>195.49999999999997</ele>
<time>2018-07-15T15:54:21Z</time>
</trkpt>
<trkpt lat="49.04484400000001" lon="8.546168">
<ele>193.79999999999998</ele>
<time>2018-07-15T15:54:50Z</time>
</trkpt>
<trkpt lat="49.045012000000014" lon="8.546058">
<ele>192.39999999999998</ele>
<time>2018-07-15T15:55:11Z</time>
</trkpt>
<trkpt lat="49.04520100000001" lon="8.546357">
<ele>190.29999999999998</ele>
<time>2018-07-15T15:55:43Z</time>
</trkpt>
<trkpt lat="49.04546300000001" lon="8.546399000000001">
<ele>188.1</ele>
<time>2018-07-15T15:56:14Z</time>
</trkpt>
<trkpt lat="49.045780000000015" lon="8.546371">
<ele>184.9</ele>
<time>2018-07-15T15:56:52Z</time>
</trkpt>
<trkpt lat="49.04629600000001" lon="8.546431">
<ele>178.8</ele>
<time>2018-07-15T15:57:55Z</time>
</trkpt>
<trkpt lat="49.04687000000001" lon="8.546321">
<ele>172.10000000000002</ele>
<time>2018-07-15T15:59:06Z</time>
</trkpt>
<trkpt lat="49.046900000000015" lon="8.546328">
<ele>171.40000000000003</ele>
<time>2018-07-15T15:59:11Z</time>
</trkpt>
<trkpt lat="49.04726200000002" lon="8.546417">
<ele>166.70000000000005</ele>
<time>2018-07-15T15:59:57Z</time>
</trkpt>
<trkpt lat="49.04806000000002" lon="8.546366">
<ele>155.90000000000003</ele>
<time>2018-07-15T16:01:38Z</time>
</trkpt>
<trkpt lat="49.048270000000024" lon="8.546306000000001">
<ele>153.60000000000002</ele>
<time>2018-07-15T16:02:03Z</time>
</trkpt>
<trkpt lat="49.048427000000025" lon="8.546246000000002">
<ele>151.70000000000002</ele>
<time>2018-07-15T16:02:23Z</time>
</trkpt>
<trkpt lat="49.048669000000025" lon="8.545987000000002">
<ele>149.50000000000003</ele>
<time>2018-07-15T16:02:57Z</time>
</trkpt>
<trkpt lat="49.048807000000025" lon="8.545942000000002">
<ele>147.80000000000004</ele>
<time>2018-07-15T16:03:15Z</time>
</trkpt>
<trkpt lat="49.04874400000003" lon="8.546324000000002">
<ele>146.90000000000003</ele>
<time>2018-07-15T16:03:43Z</time>
</trkpt>
<trkpt lat="49.04864800000003" lon="8.547234000000001">
<ele>144.50000000000003</ele>
<time>2018-07-15T16:04:48Z</time>
</trkpt>
<trkpt lat="49.04860000000003" lon="8.547461000000002">
<ele>143.90000000000003</ele>
<time>2018-07-15T16:05:05Z</time>
</trkpt>
<trkpt lat="49.048528000000026" lon="8.548356000000002">
<ele>143.30000000000004</ele>
<time>2018-07-15T16:06:05Z</time>
</trkpt>
<trkpt lat="49.048359000000026" lon="8.548995000000001">
<ele>144.30000000000004</ele>
<time>2018-07-15T16:06:54Z</time>
</trkpt>
<trkpt lat="49.04833000000003" lon="8.549655000000001">
<ele>144.90000000000003</ele>
<time>2018-07-15T16:07:40Z</time>
</trkpt>
<trkpt lat="49.048289000000025" lon="8.549856000000002">
<ele>145.00000000000003</ele>
<time>2018-07-15T16:07:54Z</time>
</trkpt>
<trkpt lat="49.04857500000003" lon="8.550041000000002">
<ele>145.00000000000003</ele>
<time>2018-07-15T16:08:25Z</time>
</trkpt>
<trkpt lat="49.048289000000025" lon="8.549856000000002">
<ele>145.00000000000003</ele>
<time>2018-07-15T16:08:56Z</time>
</trkpt>
<trkpt lat="49.04833000000003" lon="8.549655000000001">
<ele>144.90000000000003</ele>
<time>2018-07-15T16:09:10Z</time>
</trkpt>
<trkpt lat="49.048359000000026" lon="8.548995000000001">
<ele>144.30000000000004</ele>
<time>2018-07-15T16:09:55Z</time>
</trkpt>
<trkpt lat="49.048528000000026" lon="8.548356000000002">
<ele>143.30000000000004</ele>
<time>2018-07-15T16:10:42Z</time>
</trkpt>
<trkpt lat="49.04860000000003" lon="8.547461000000002">
<ele>141.40000000000003</ele>
<time>2018-07-15T16:11:46Z</time>
</trkpt>
<trkpt lat="49.04864800000003" lon="8.547234000000001">
<ele>140.60000000000002</ele>
<time>2018-07-15T16:12:03Z</time>
</trkpt>
<trkpt lat="49.04874400000003" lon="8.546324000000002">
<ele>137.90000000000003</ele>
<time>2018-07-15T16:13:09Z</time>
</trkpt>
<trkpt lat="49.048807000000025" lon="8.545942000000002">
<ele>136.80000000000004</ele>
<time>2018-07-15T16:13:37Z</time>
</trkpt>
<trkpt lat="49.04900800000002" lon="8.545769000000002">
<ele>136.00000000000003</ele>
<time>2018-07-15T16:14:02Z</time>
</trkpt>
<trkpt lat="49.04931800000002" lon="8.545433000000001">
<ele>134.80000000000004</ele>
<time>2018-07-15T16:14:43Z</time>
</trkpt>
<trkpt lat="49.04944300000002" lon="8.545509000000001">
<ele>134.30000000000004</ele>
<time>2018-07-15T16:14:57Z</time>
</trkpt>
<trkpt lat="49.050671000000015" lon="8.545993000000001">
<ele>132.70000000000005</ele>
<time>2018-07-15T16:17:07Z</time>
</trkpt>
<trkpt lat="49.05072400000002" lon="8.547254">
<ele>133.30000000000004</ele>
<time>2018-07-15T16:18:33Z</time>
</trkpt>
<trkpt lat="49.050722000000015" lon="8.547603">
<ele>133.50000000000003</ele>
<time>2018-07-15T16:18:56Z</time>
</trkpt>
<trkpt lat="49.05072400000002" lon="8.54776">
<ele>133.70000000000002</ele>
<time>2018-07-15T16:19:07Z</time>
</trkpt>
<trkpt lat="49.05072100000002" lon="8.548082">
<ele>134.20000000000002</ele>
<time>2018-07-15T16:19:30Z</time>
</trkpt>
<trkpt lat="49.05071700000002" lon="8.548212000000001">
<ele>134.50000000000003</ele>
<time>2018-07-15T16:19:40Z</time>
</trkpt>
<trkpt lat="49.05064900000002" lon="8.548621">
<ele>135.50000000000003</ele>
<time>2018-07-15T16:20:11Z</time>
</trkpt>
<trkpt lat="49.050451000000024" lon="8.549292000000001">
<ele>137.60000000000002</ele>
<time>2018-07-15T16:21:07Z</time>
</trkpt>
<trkpt lat="49.05057600000002" lon="8.549429000000002">
<ele>138.50000000000003</ele>
<time>2018-07-15T16:21:25Z</time>
</trkpt>
<trkpt lat="49.05064900000002" lon="8.549723000000002">
<ele>139.40000000000003</ele>
<time>2018-07-15T16:21:49Z</time>
</trkpt>
<trkpt lat="49.050673000000025" lon="8.549780000000002">
<ele>139.70000000000005</ele>
<time>2018-07-15T16:21:55Z</time>
</trkpt>
<trkpt lat="49.05126200000002" lon="8.550582000000002">
<ele>145.20000000000005</ele>
<time>2018-07-15T16:23:32Z</time>
</trkpt>
<trkpt lat="49.05215200000002" lon="8.552009000000002">
<ele>157.30000000000004</ele>
<time>2018-07-15T16:26:22Z</time>
</trkpt>
<trkpt lat="49.05238500000002" lon="8.552303000000002">
<ele>160.10000000000005</ele>
<time>2018-07-15T16:27:02Z</time>
</trkpt>
<trkpt lat="49.05247200000002" lon="8.552399000000001">
<ele>160.90000000000006</ele>
<time>2018-07-15T16:27:16Z</time>
</trkpt>
<trkpt lat="49.05261000000002" lon="8.552474000000002">
<ele>162.20000000000007</ele>
<time>2018-07-15T16:27:35Z</time>
</trkpt>
<trkpt lat="49.05267600000002" lon="8.552506000000001">
<ele>163.10000000000008</ele>
<time>2018-07-15T16:27:45Z</time>
</trkpt>
<trkpt lat="49.05298200000002" lon="8.552683000000002">
<ele>166.10000000000008</ele>
<time>2018-07-15T16:28:28Z</time>
</trkpt>
<trkpt lat="49.053237000000024" lon="8.552891000000002">
<ele>168.70000000000007</ele>
<time>2018-07-15T16:29:06Z</time>
</trkpt>
<trkpt lat="49.05351600000002" lon="8.553174000000002">
<ele>172.10000000000008</ele>
<time>2018-07-15T16:29:51Z</time>
</trkpt>
<trkpt lat="49.05375800000002" lon="8.553655000000003">
<ele>176.10000000000008</ele>
<time>2018-07-15T16:30:44Z</time>
</trkpt>
<trkpt lat="49.05408600000003" lon="8.554287000000002">
<ele>181.9000000000001</ele>
<time>2018-07-15T16:31:56Z</time>
</trkpt>
<trkpt lat="49.053968000000026" lon="8.554440000000001">
<ele>183.50000000000009</ele>
<time>2018-07-15T16:32:17Z</time>
</trkpt>
<trkpt lat="49.05397300000003" lon="8.554566000000001">
<ele>184.50000000000009</ele>
<time>2018-07-15T16:32:29Z</time>
</trkpt>
<trkpt lat="49.054430000000025" lon="8.555726000000002">
<ele>195.60000000000008</ele>
<time>2018-07-15T16:34:39Z</time>
</trkpt>
<trkpt lat="49.05469100000003" lon="8.556081000000002">
<ele>199.50000000000009</ele>
<time>2018-07-15T16:35:27Z</time>
</trkpt>
<trkpt lat="49.055105000000026" lon="8.556581000000003">
<ele>205.70000000000007</ele>
<time>2018-07-15T16:36:41Z</time>
</trkpt>
<trkpt lat="49.05530900000002" lon="8.556825000000003">
<ele>208.80000000000007</ele>
<time>2018-07-15T16:37:19Z</time>
</trkpt>
<trkpt lat="49.05577100000002" lon="8.557689000000003">
<ele>216.60000000000008</ele>
<time>2018-07-15T16:38:58Z</time>
</trkpt>
<trkpt lat="49.055984000000024" lon="8.558030000000004">
<ele>219.60000000000008</ele>
<time>2018-07-15T16:39:39Z</time>
</trkpt>
<trkpt lat="49.05622200000003" lon="8.558164000000003">
<ele>221.80000000000007</ele>
<time>2018-07-15T16:40:12Z</time>
</trkpt>
<trkpt lat="49.05652300000003" lon="8.559210000000004">
<ele>226.80000000000007</ele>
<time>2018-07-15T16:41:44Z</time>
</trkpt>
<trkpt lat="49.05659600000003" lon="8.559467000000003">
<ele>227.80000000000007</ele>
<time>2018-07-15T16:42:06Z</time>
</trkpt>
<trkpt lat="49.05662300000003" lon="8.559561000000004">
<ele>228.30000000000007</ele>
<time>2018-07-15T16:42:14Z</time>
</trkpt>
<trkpt lat="49.05766500000003" lon="8.562524000000003">
<ele>234.60000000000008</ele>
<time>2018-07-15T16:46:17Z</time>
</trkpt>
<trkpt lat="49.05809200000003" lon="8.563332000000003">
<ele>235.60000000000008</ele>
<time>2018-07-15T16:47:29Z</time>
</trkpt>
<trkpt lat="49.05826000000003" lon="8.563703000000002">
<ele>235.9000000000001</ele>
<time>2018-07-15T16:48:00Z</time>
</trkpt>
<trkpt lat="49.05901000000003" lon="8.564459000000003">
<ele>236.50000000000009</ele>
<time>2018-07-15T16:49:32Z</time>
</trkpt>
<trkpt lat="49.05920300000003" lon="8.564577000000003">
<ele>236.70000000000007</ele>
<time>2018-07-15T16:49:54Z</time>
</trkpt>
<trkpt lat="49.059787000000036" lon="8.564934000000003">
<ele>237.00000000000009</ele>
<time>2018-07-15T16:50:58Z</time>
</trkpt>
<trkpt lat="49.059877000000036" lon="8.564970000000002">
<ele>237.00000000000009</ele>
<time>2018-07-15T16:51:07Z</time>
</trkpt>
<trkpt lat="49.059894000000035" lon="8.565068000000002">
<ele>237.00000000000009</ele>
<time>2018-07-15T16:51:14Z</time>
</trkpt>
<trkpt lat="49.060358000000036" lon="8.565727000000003">
<ele>237.3000000000001</ele>
<time>2018-07-15T16:52:19Z</time>
</trkpt>
<trkpt lat="49.061642000000035" lon="8.567066000000002">
<ele>237.50000000000009</ele>
<time>2018-07-15T16:54:55Z</time>
</trkpt>
<trkpt lat="49.06224500000003" lon="8.567709000000002">
<ele>236.4000000000001</ele>
<time>2018-07-15T16:56:11Z</time>
</trkpt>
<trkpt lat="49.06299700000003" lon="8.568456000000003">
<ele>234.4000000000001</ele>
<time>2018-07-15T16:57:45Z</time>
</trkpt>
<trkpt lat="49.06332900000003" lon="8.568808000000002">
<ele>233.3000000000001</ele>
<time>2018-07-15T16:58:28Z</time>
</trkpt>
<trkpt lat="49.06510900000003" lon="8.569614000000003">
<ele>231.1000000000001</ele>
<time>2018-07-15T17:01:38Z</time>
</trkpt>
<trkpt lat="49.066016000000026" lon="8.570003000000003">
<ele>233.5000000000001</ele>
<time>2018-07-15T17:03:21Z</time>
</trkpt>
<trkpt lat="49.066520000000025" lon="8.570240000000004">
<ele>235.2000000000001</ele>
<time>2018-07-15T17:04:20Z</time>
</trkpt>
<trkpt lat="49.066520000000025" lon="8.570240000000004">
<ele>235.4000000000001</ele>
<time>2018-07-15T17:04:20Z</time>
</trkpt>
<trkpt lat="49.06676000000002" lon="8.569611000000004">
<ele>237.00000000000009</ele>
<time>2018-07-15T17:05:14Z</time>
</trkpt>
<trkpt lat="49.067258000000024" lon="8.567942000000004">
<ele>239.60000000000008</ele>
<time>2018-07-15T17:07:24Z</time>
</trkpt>
<trkpt lat="49.067829000000025" lon="8.565857000000005">
<ele>238.4000000000001</ele>
<time>2018-07-15T17:09:55Z</time>
</trkpt>
<trkpt lat="49.06795200000003" lon="8.565464000000004">
<ele>237.9000000000001</ele>
<time>2018-07-15T17:10:24Z</time>
</trkpt>
<trkpt lat="49.06800700000003" lon="8.565083000000003">
<ele>237.2000000000001</ele>
<time>2018-07-15T17:10:51Z</time>
</trkpt>
<trkpt lat="49.06807700000003" lon="8.564687000000003">
<ele>236.6000000000001</ele>
<time>2018-07-15T17:11:19Z</time>
</trkpt>
<trkpt lat="49.068191000000034" lon="8.564437000000003">
<ele>236.3000000000001</ele>
<time>2018-07-15T17:11:40Z</time>
</trkpt>
<trkpt lat="49.06822600000003" lon="8.564269000000003">
<ele>236.00000000000009</ele>
<time>2018-07-15T17:11:52Z</time>
</trkpt>
<trkpt lat="49.06824100000003" lon="8.564206000000002">
<ele>235.8000000000001</ele>
<time>2018-07-15T17:11:57Z</time>
</trkpt>
<trkpt lat="49.06843000000003" lon="8.563325000000003">
<ele>234.4000000000001</ele>
<time>2018-07-15T17:13:01Z</time>
</trkpt>
<trkpt lat="49.068479000000025" lon="8.562911000000003">
<ele>233.8000000000001</ele>
<time>2018-07-15T17:13:30Z</time>
</trkpt>
<trkpt lat="49.06851700000003" lon="8.562446000000003">
<ele>233.1000000000001</ele>
<time>2018-07-15T17:14:02Z</time>
</trkpt>
<trkpt lat="49.06848300000003" lon="8.561796000000003">
<ele>231.8000000000001</ele>
<time>2018-07-15T17:14:48Z</time>
</trkpt>
<trkpt lat="49.06853600000003" lon="8.561663000000003">
<ele>231.4000000000001</ele>
<time>2018-07-15T17:14:59Z</time>
</trkpt>
<trkpt lat="49.06868100000003" lon="8.561650000000004">
<ele>231.2000000000001</ele>
<time>2018-07-15T17:15:14Z</time>
</trkpt>
<trkpt lat="49.068568000000035" lon="8.561440000000005">
<ele>230.5000000000001</ele>
<time>2018-07-15T17:15:33Z</time>
</trkpt>
<trkpt lat="49.068495000000034" lon="8.561161000000004">
<ele>229.90000000000012</ele>
<time>2018-07-15T17:15:54Z</time>
</trkpt>
<trkpt lat="49.068534000000035" lon="8.560710000000004">
<ele>228.40000000000012</ele>
<time>2018-07-15T17:16:27Z</time>
</trkpt>
<trkpt lat="49.068447000000035" lon="8.560423000000004">
<ele>227.30000000000013</ele>
<time>2018-07-15T17:16:50Z</time>
</trkpt>
<trkpt lat="49.068368000000035" lon="8.560133000000004">
<ele>226.5000000000001</ele>
<time>2018-07-15T17:17:12Z</time>
</trkpt>
<trkpt lat="49.06829000000003" lon="8.559845000000005">
<ele>224.90000000000012</ele>
<time>2018-07-15T17:17:36Z</time>
</trkpt>
<trkpt lat="49.068267000000034" lon="8.559128000000005">
<ele>222.0000000000001</ele>
<time>2018-07-15T17:18:29Z</time>
</trkpt>
<trkpt lat="49.06826200000003" lon="8.558965000000004">
<ele>221.40000000000012</ele>
<time>2018-07-15T17:18:41Z</time>
</trkpt>
<trkpt lat="49.06831600000003" lon="8.558705000000003">
<ele>220.0000000000001</ele>
<time>2018-07-15T17:19:02Z</time>
</trkpt>
<trkpt lat="49.06838600000003" lon="8.558539000000003">
<ele>219.40000000000012</ele>
<time>2018-07-15T17:19:16Z</time>
</trkpt>
<trkpt lat="49.06845900000003" lon="8.558368000000003">
<ele>218.30000000000013</ele>
<time>2018-07-15T17:19:31Z</time>
</trkpt>
<trkpt lat="49.06835300000003" lon="8.558239000000004">
<ele>217.40000000000012</ele>
<time>2018-07-15T17:19:47Z</time>
</trkpt>
<trkpt lat="49.06823600000003" lon="8.558218000000004">
<ele>216.80000000000013</ele>
<time>2018-07-15T17:20:00Z</time>
</trkpt>
<trkpt lat="49.06820200000003" lon="8.558043000000003">
<ele>215.80000000000013</ele>
<time>2018-07-15T17:20:14Z</time>
</trkpt>
<trkpt lat="49.06815000000003" lon="8.557966000000004">
<ele>215.30000000000013</ele>
<time>2018-07-15T17:20:22Z</time>
</trkpt>
<trkpt lat="49.068250000000035" lon="8.557848000000003">
<ele>214.60000000000014</ele>
<time>2018-07-15T17:20:36Z</time>
</trkpt>
<trkpt lat="49.06840600000003" lon="8.557693000000004">
<ele>213.30000000000013</ele>
<time>2018-07-15T17:20:57Z</time>
</trkpt>
<trkpt lat="49.06860900000003" lon="8.557585000000003">
<ele>212.20000000000013</ele>
<time>2018-07-15T17:21:21Z</time>
</trkpt>
<trkpt lat="49.06907600000003" lon="8.556859000000003">
<ele>208.40000000000012</ele>
<time>2018-07-15T17:22:36Z</time>
</trkpt>
<trkpt lat="49.06946000000003" lon="8.555920000000002">
<ele>204.5000000000001</ele>
<time>2018-07-15T17:23:56Z</time>
</trkpt>
<trkpt lat="49.06973200000003" lon="8.555500000000002">
<ele>202.5000000000001</ele>
<time>2018-07-15T17:24:39Z</time>
</trkpt>
<trkpt lat="49.06980200000003" lon="8.555259000000001">
<ele>201.5000000000001</ele>
<time>2018-07-15T17:24:59Z</time>
</trkpt>
<trkpt lat="49.07020500000003" lon="8.554908000000001">
<ele>198.7000000000001</ele>
<time>2018-07-15T17:25:51Z</time>
</trkpt>
<trkpt lat="49.07081200000003" lon="8.554101000000001">
<ele>193.6000000000001</ele>
<time>2018-07-15T17:27:22Z</time>
</trkpt>
<trkpt lat="49.07113800000003" lon="8.553397">
<ele>189.90000000000012</ele>
<time>2018-07-15T17:28:26Z</time>
</trkpt>
<trkpt lat="49.07151500000003" lon="8.552024000000001">
<ele>183.0000000000001</ele>
<time>2018-07-15T17:30:17Z</time>
</trkpt>
<trkpt lat="49.071700000000035" lon="8.551455">
<ele>180.30000000000013</ele>
<time>2018-07-15T17:31:05Z</time>
</trkpt>
<trkpt lat="49.07176400000004" lon="8.551146000000001">
<ele>178.80000000000013</ele>
<time>2018-07-15T17:31:29Z</time>
</trkpt>
<trkpt lat="49.071796000000035" lon="8.550737000000002">
<ele>177.10000000000014</ele>
<time>2018-07-15T17:31:59Z</time>
</trkpt>
<trkpt lat="49.07212100000003" lon="8.549955000000002">
<ele>173.10000000000014</ele>
<time>2018-07-15T17:33:08Z</time>
</trkpt>
<trkpt lat="49.07247800000003" lon="8.549291000000002">
<ele>169.30000000000013</ele>
<time>2018-07-15T17:34:12Z</time>
</trkpt>
<trkpt lat="49.07266500000003" lon="8.548759000000002">
<ele>167.30000000000013</ele>
<time>2018-07-15T17:34:56Z</time>
</trkpt>
<trkpt lat="49.07273500000003" lon="8.548345000000003">
<ele>166.0000000000001</ele>
<time>2018-07-15T17:35:27Z</time>
</trkpt>
<trkpt lat="49.07286900000003" lon="8.547962000000004">
<ele>164.6000000000001</ele>
<time>2018-07-15T17:35:58Z</time>
</trkpt>
<trkpt lat="49.07290100000003" lon="8.547872000000003">
<ele>164.40000000000012</ele>
<time>2018-07-15T17:36:05Z</time>
</trkpt>
<trkpt lat="49.07316400000003" lon="8.547168000000003">
<ele>162.90000000000012</ele>
<time>2018-07-15T17:37:02Z</time>
</trkpt>
<trkpt lat="49.073252000000025" lon="8.546795000000003">
<ele>163.1000000000001</ele>
<time>2018-07-15T17:37:29Z</time>
</trkpt>
<trkpt lat="49.073291000000026" lon="8.546685000000004">
<ele>163.0000000000001</ele>
<time>2018-07-15T17:37:37Z</time>
</trkpt>
<trkpt lat="49.07331200000002" lon="8.546608000000004">
<ele>162.1000000000001</ele>
<time>2018-07-15T17:37:44Z</time>
</trkpt>
<trkpt lat="49.073291000000026" lon="8.546685000000004">
<ele>163.1000000000001</ele>
<time>2018-07-15T17:37:54Z</time>
</trkpt>
<trkpt lat="49.07325000000002" lon="8.546405000000004">
<ele>163.5000000000001</ele>
<time>2018-07-15T17:38:14Z</time>
</trkpt>
<trkpt lat="49.07323100000002" lon="8.546348000000004">
<ele>163.6000000000001</ele>
<time>2018-07-15T17:38:19Z</time>
</trkpt>
<trkpt lat="49.07320100000002" lon="8.546261000000003">
<ele>163.0000000000001</ele>
<time>2018-07-15T17:38:27Z</time>
</trkpt>
<trkpt lat="49.07313700000002" lon="8.546145000000003">
<ele>164.0000000000001</ele>
<time>2018-07-15T17:38:40Z</time>
</trkpt>
<trkpt lat="49.072946000000016" lon="8.546684000000003">
<ele>165.80000000000013</ele>
<time>2018-07-15T17:39:26Z</time>
</trkpt>
<trkpt lat="49.07278400000001" lon="8.547070000000003">
<ele>167.40000000000012</ele>
<time>2018-07-15T17:40:02Z</time>
</trkpt>
<trkpt lat="49.07255900000001" lon="8.547577000000004">
<ele>170.90000000000012</ele>
<time>2018-07-15T17:40:54Z</time>
</trkpt>
<trkpt lat="49.07233100000001" lon="8.547347000000004">
<ele>173.70000000000013</ele>
<time>2018-07-15T17:41:31Z</time>
</trkpt>
<trkpt lat="49.072125000000014" lon="8.547090000000004">
<ele>176.50000000000014</ele>
<time>2018-07-15T17:42:07Z</time>
</trkpt>
<trkpt lat="49.07221400000002" lon="8.546568000000004">
<ele>180.70000000000013</ele>
<time>2018-07-15T17:42:57Z</time>
</trkpt>
<trkpt lat="49.07207200000002" lon="8.546405000000004">
<ele>182.80000000000013</ele>
<time>2018-07-15T17:43:23Z</time>
</trkpt>
<trkpt lat="49.07182100000002" lon="8.546202000000003">
<ele>185.90000000000012</ele>
<time>2018-07-15T17:44:01Z</time>
</trkpt>
<trkpt lat="49.07138600000002" lon="8.545717000000003">
<ele>190.0000000000001</ele>
<time>2018-07-15T17:45:09Z</time>
</trkpt>
<trkpt lat="49.070810000000016" lon="8.545300000000003">
<ele>193.7000000000001</ele>
<time>2018-07-15T17:46:26Z</time>
</trkpt>
<trkpt lat="49.07063200000002" lon="8.544847000000003">
<ele>195.0000000000001</ele>
<time>2018-07-15T17:47:05Z</time>
</trkpt>
<trkpt lat="49.07034200000002" lon="8.544407000000003">
<ele>195.1000000000001</ele>
<time>2018-07-15T17:47:46Z</time>
</trkpt>
<trkpt lat="49.06919100000002" lon="8.543383000000004">
<ele>190.5000000000001</ele>
<time>2018-07-15T17:50:09Z</time>
</trkpt>
<trkpt lat="49.069040000000015" lon="8.543233000000004">
<ele>189.7000000000001</ele>
<time>2018-07-15T17:50:29Z</time>
</trkpt>
<trkpt lat="49.068804000000014" lon="8.543199000000005">
<ele>188.8000000000001</ele>
<time>2018-07-15T17:50:54Z</time>
</trkpt>
<trkpt lat="49.06837700000001" lon="8.542904000000005">
<ele>186.9000000000001</ele>
<time>2018-07-15T17:51:45Z</time>
</trkpt>
<trkpt lat="49.06768800000001" lon="8.542163000000006">
<ele>183.7000000000001</ele>
<time>2018-07-15T17:53:16Z</time>
</trkpt>
<trkpt lat="49.06751000000001" lon="8.542073000000006">
<ele>183.2000000000001</ele>
<time>2018-07-15T17:53:36Z</time>
</trkpt>
<trkpt lat="49.067256000000015" lon="8.542229000000006">
<ele>182.8000000000001</ele>
<time>2018-07-15T17:54:04Z</time>
</trkpt>
<trkpt lat="49.06683300000002" lon="8.542806000000006">
<ele>181.9000000000001</ele>
<time>2018-07-15T17:55:03Z</time>
</trkpt>
<trkpt lat="49.066423000000015" lon="8.542971000000007">
<ele>180.50000000000009</ele>
<time>2018-07-15T17:55:48Z</time>
</trkpt>
<trkpt lat="49.066327000000015" lon="8.543074000000006">
<ele>180.20000000000007</ele>
<time>2018-07-15T17:56:01Z</time>
</trkpt>
<trkpt lat="49.066046000000014" lon="8.543318000000006">
<ele>179.40000000000006</ele>
<time>2018-07-15T17:56:35Z</time>
</trkpt>
<trkpt lat="49.065840000000016" lon="8.543267000000007">
<ele>179.20000000000007</ele>
<time>2018-07-15T17:56:56Z</time>
</trkpt>
<trkpt lat="49.066099000000015" lon="8.542875000000008">
<ele>180.10000000000008</ele>
<time>2018-07-15T17:57:36Z</time>
</trkpt>
<trkpt lat="49.06614200000001" lon="8.542269000000008">
<ele>181.70000000000007</ele>
<time>2018-07-15T17:58:22Z</time>
</trkpt>
<trkpt lat="49.066155000000016" lon="8.542019000000009">
<ele>182.40000000000006</ele>
<time>2018-07-15T17:58:40Z</time>
</trkpt>
<trkpt lat="49.066108000000014" lon="8.541896000000008">
<ele>182.50000000000006</ele>
<time>2018-07-15T17:58:50Z</time>
</trkpt>
<trkpt lat="49.065978000000015" lon="8.541824000000009">
<ele>183.60000000000005</ele>
<time>2018-07-15T17:59:08Z</time>
</trkpt>
<trkpt lat="49.065843000000015" lon="8.541760000000009">
<ele>184.10000000000005</ele>
<time>2018-07-15T17:59:23Z</time>
</trkpt>
<trkpt lat="49.06542800000002" lon="8.54156200000001">
<ele>185.60000000000005</ele>
<time>2018-07-15T18:00:12Z</time>
</trkpt>
<trkpt lat="49.06534300000002" lon="8.54153400000001">
<ele>186.50000000000006</ele>
<time>2018-07-15T18:00:24Z</time>
</trkpt>
<trkpt lat="49.06496300000002" lon="8.541570000000009">
<ele>189.00000000000006</ele>
<time>2018-07-15T18:01:11Z</time>
</trkpt>
<trkpt lat="49.06462100000002" lon="8.541494000000009">
<ele>191.70000000000005</ele>
<time>2018-07-15T18:01:55Z</time>
</trkpt>
<trkpt lat="49.06407700000002" lon="8.54106400000001">
<ele>195.90000000000003</ele>
<time>2018-07-15T18:03:10Z</time>
</trkpt>
<trkpt lat="49.06347700000002" lon="8.54069600000001">
<ele>198.00000000000003</ele>
<time>2018-07-15T18:04:22Z</time>
</trkpt>
<trkpt lat="49.06293400000002" lon="8.54048500000001">
<ele>198.60000000000002</ele>
<time>2018-07-15T18:05:21Z</time>
</trkpt>
<trkpt lat="49.06265800000002" lon="8.540327000000008">
<ele>198.70000000000002</ele>
<time>2018-07-15T18:05:51Z</time>
</trkpt>
<trkpt lat="49.06256300000002" lon="8.540251000000008">
<ele>198.70000000000002</ele>
<time>2018-07-15T18:06:01Z</time>
</trkpt>
<trkpt lat="49.06217800000002" lon="8.53970400000001">
<ele>198.4</ele>
<time>2018-07-15T18:06:55Z</time>
</trkpt>
<trkpt lat="49.06191300000002" lon="8.53946600000001">
<ele>198.1</ele>
<time>2018-07-15T18:07:26Z</time>
</trkpt>
<trkpt lat="49.06156700000002" lon="8.53931600000001">
<ele>197.79999999999998</ele>
<time>2018-07-15T18:08:03Z</time>
</trkpt>
<trkpt lat="49.060639000000016" lon="8.53877200000001">
<ele>197.2</ele>
<time>2018-07-15T18:09:44Z</time>
</trkpt>
<trkpt lat="49.05985300000002" lon="8.53803900000001">
<ele>196.29999999999998</ele>
<time>2018-07-15T18:11:18Z</time>
</trkpt>
<trkpt lat="49.05960300000002" lon="8.53775400000001">
<ele>195.89999999999998</ele>
<time>2018-07-15T18:11:50Z</time>
</trkpt>
<trkpt lat="49.05946400000002" lon="8.53753400000001">
<ele>195.49999999999997</ele>
<time>2018-07-15T18:12:11Z</time>
</trkpt>
<trkpt lat="49.05910900000002" lon="8.53721900000001">
<ele>194.09999999999997</ele>
<time>2018-07-15T18:12:55Z</time>
</trkpt>
<trkpt lat="49.05868700000002" lon="8.53674800000001">
<ele>190.39999999999998</ele>
<time>2018-07-15T18:13:55Z</time>
</trkpt>
<trkpt lat="49.05852500000002" lon="8.53664100000001">
<ele>188.59999999999997</ele>
<time>2018-07-15T18:14:16Z</time>
</trkpt>
<trkpt lat="49.05801000000002" lon="8.53635000000001">
<ele>183.49999999999997</ele>
<time>2018-07-15T18:15:21Z</time>
</trkpt>
<trkpt lat="49.05789200000002" lon="8.53630000000001">
<ele>181.89999999999998</ele>
<time>2018-07-15T18:15:36Z</time>
</trkpt>
<trkpt lat="49.05769500000002" lon="8.53619300000001">
<ele>180.09999999999997</ele>
<time>2018-07-15T18:16:01Z</time>
</trkpt>
<trkpt lat="49.05763800000002" lon="8.53612000000001">
<ele>178.59999999999997</ele>
<time>2018-07-15T18:16:12Z</time>
</trkpt>
<trkpt lat="49.05746700000002" lon="8.53598200000001">
<ele>176.89999999999998</ele>
<time>2018-07-15T18:16:34Z</time>
</trkpt>
<trkpt lat="49.057155000000016" lon="8.53582000000001">
<ele>172.7</ele>
<time>2018-07-15T18:17:15Z</time>
</trkpt>
<trkpt lat="49.05683900000002" lon="8.53572400000001">
<ele>168.2</ele>
<time>2018-07-15T18:17:56Z</time>
</trkpt>
<trkpt lat="49.05627000000002" lon="8.53545800000001">
<ele>160.2</ele>
<time>2018-07-15T18:19:11Z</time>
</trkpt>
<trkpt lat="49.05586900000002" lon="8.535339000000011">
<ele>156.89999999999998</ele>
<time>2018-07-15T18:19:59Z</time>
</trkpt>
<trkpt lat="49.055589000000026" lon="8.535251000000011">
<ele>154.59999999999997</ele>
<time>2018-07-15T18:20:32Z</time>
</trkpt>
<trkpt lat="49.055536000000025" lon="8.535243000000012">
<ele>154.29999999999995</ele>
<time>2018-07-15T18:20:38Z</time>
</trkpt>
<trkpt lat="49.055339000000025" lon="8.535213000000011">
<ele>152.89999999999995</ele>
<time>2018-07-15T18:21:01Z</time>
</trkpt>
<trkpt lat="49.05512700000003" lon="8.535205000000012">
<ele>151.69999999999996</ele>
<time>2018-07-15T18:21:24Z</time>
</trkpt>
<trkpt lat="49.054621000000026" lon="8.535319000000012">
<ele>148.99999999999997</ele>
<time>2018-07-15T18:22:21Z</time>
</trkpt>
<trkpt lat="49.05420400000003" lon="8.535279000000012">
<ele>146.89999999999998</ele>
<time>2018-07-15T18:23:07Z</time>
</trkpt>
<trkpt lat="49.05427100000003" lon="8.535099000000011">
<ele>146.39999999999998</ele>
<time>2018-07-15T18:23:22Z</time>
</trkpt>
<trkpt lat="49.05421200000003" lon="8.535090000000011">
<ele>146.2</ele>
<time>2018-07-15T18:23:28Z</time>
</trkpt>
<trkpt lat="49.053915000000025" lon="8.535056000000012">
<ele>145.29999999999998</ele>
<time>2018-07-15T18:24:00Z</time>
</trkpt>
<trkpt lat="49.053729000000025" lon="8.535206000000011">
<ele>144.49999999999997</ele>
<time>2018-07-15T18:24:22Z</time>
</trkpt>
<trkpt lat="49.05361800000003" lon="8.534904000000012">
<ele>143.49999999999997</ele>
<time>2018-07-15T18:24:47Z</time>
</trkpt>
<trkpt lat="49.05317200000003" lon="8.533475000000012">
<ele>137.39999999999998</ele>
<time>2018-07-15T18:26:44Z</time>
</trkpt>
<trkpt lat="49.05301800000003" lon="8.53311300000001">
<ele>135.29999999999998</ele>
<time>2018-07-15T18:27:16Z</time>
</trkpt>
<trkpt lat="49.05283700000003" lon="8.532718000000012">
<ele>133.1</ele>
<time>2018-07-15T18:27:52Z</time>
</trkpt>
<trkpt lat="49.052614000000034" lon="8.532335000000012">
<ele>130.9</ele>
<time>2018-07-15T18:28:30Z</time>
</trkpt>
<trkpt lat="49.05255800000003" lon="8.532277000000013">
<ele>130.3</ele>
<time>2018-07-15T18:28:38Z</time>
</trkpt>
<trkpt lat="49.05249100000003" lon="8.532277000000013">
<ele>130</ele>
<time>2018-07-15T18:28:46Z</time>
</trkpt>
<trkpt lat="49.05246300000003" lon="8.532291000000013">
<ele>129.7</ele>
<time>2018-07-15T18:28:49Z</time>
</trkpt>
<trkpt lat="49.05241000000003" lon="8.532204000000013">
<ele>129.2</ele>
<time>2018-07-15T18:28:58Z</time>
</trkpt>
<trkpt lat="49.05240500000003" lon="8.532183000000012">
<ele>129.1</ele>
<time>2018-07-15T18:29:00Z</time>
</trkpt>
<trkpt lat="49.05236200000003" lon="8.532184000000012">
<ele>128.9</ele>
<time>2018-07-15T18:29:04Z</time>
</trkpt>
<trkpt lat="49.05235900000003" lon="8.532060000000012">
<ele>128.4</ele>
<time>2018-07-15T18:29:14Z</time>
</trkpt>
<trkpt lat="49.05230200000003" lon="8.532026000000013">
<ele>128</ele>
<time>2018-07-15T18:29:20Z</time>
</trkpt>
<trkpt lat="49.05228600000003" lon="8.532016000000013">
<ele>127.9</ele>
<time>2018-07-15T18:29:22Z</time>
</trkpt>
<trkpt lat="49.05227700000003" lon="8.532297000000012">
<ele>126.9</ele>
<time>2018-07-15T18:29:43Z</time>
</trkpt>
<trkpt lat="49.05226000000003" lon="8.532294000000013">
<ele>126.80000000000001</ele>
<time>2018-07-15T18:29:45Z</time>
</trkpt>
<trkpt lat="49.05225000000003" lon="8.532293000000013">
<ele>126.80000000000001</ele>
<time>2018-07-15T18:29:46Z</time>
</trkpt>
<trkpt lat="49.05226500000003" lon="8.531977000000014">
<ele>125.80000000000001</ele>
<time>2018-07-15T18:30:09Z</time>
</trkpt>
<trkpt lat="49.052285000000026" lon="8.531868000000014">
<ele>125.50000000000001</ele>
<time>2018-07-15T18:30:17Z</time>
</trkpt>
<trkpt lat="49.05231200000003" lon="8.531685000000014">
<ele>125.10000000000001</ele>
<time>2018-07-15T18:30:30Z</time>
</trkpt>
<trkpt lat="49.05225200000003" lon="8.531592000000014">
<ele>124.7</ele>
<time>2018-07-15T18:30:39Z</time>
</trkpt>
<trkpt lat="49.05220700000003" lon="8.531652000000014">
<ele>124.5</ele>
<time>2018-07-15T18:30:46Z</time>
</trkpt>
<trkpt lat="49.052161000000034" lon="8.531580000000014">
<ele>124.3</ele>
<time>2018-07-15T18:30:53Z</time>
</trkpt>
<trkpt lat="49.052053000000036" lon="8.531742000000014">
<ele>123.89999999999999</ele>
<time>2018-07-15T18:31:09Z</time>
</trkpt>
<trkpt lat="49.05201000000004" lon="8.531786000000015">
<ele>123.6</ele>
<time>2018-07-15T18:31:14Z</time>
</trkpt>
<trkpt lat="49.05196400000004" lon="8.531815000000014">
<ele>123.5</ele>
<time>2018-07-15T18:31:20Z</time>
</trkpt>
<trkpt lat="49.05197700000004" lon="8.531887000000014">
<ele>123.3</ele>
<time>2018-07-15T18:31:25Z</time>
</trkpt>
<trkpt lat="49.051982000000045" lon="8.531943000000014">
<ele>123.2</ele>
<time>2018-07-15T18:31:29Z</time>
</trkpt>
<trkpt lat="49.05199400000004" lon="8.532088000000014">
<ele>122.9</ele>
<time>2018-07-15T18:31:39Z</time>
</trkpt>
<trkpt lat="49.051982000000045" lon="8.532404000000014">
<ele>122.7</ele>
<time>2018-07-15T18:32:00Z</time>
</trkpt>
<trkpt lat="49.05193900000005" lon="8.532921000000014">
<ele>122.60000000000001</ele>
<time>2018-07-15T18:32:35Z</time>
</trkpt>
<trkpt lat="49.051946000000044" lon="8.533083000000014">
<ele>122.50000000000001</ele>
<time>2018-07-15T18:32:46Z</time>
</trkpt>
<trkpt lat="49.051867000000044" lon="8.533140000000014">
<ele>122.60000000000001</ele>
<time>2018-07-15T18:32:55Z</time>
</trkpt>
<trkpt lat="49.05189000000004" lon="8.533261000000014">
<ele>122.7</ele>
<time>2018-07-15T18:33:03Z</time>
</trkpt>
<trkpt lat="49.05189100000004" lon="8.533263000000014">
<ele>122.7</ele>
<time>2018-07-15T18:33:04Z</time>
</trkpt>
<trkpt lat="49.05193600000004" lon="8.533457000000015">
<ele>122.8</ele>
<time>2018-07-15T18:33:18Z</time>
</trkpt>
<trkpt lat="49.05199000000004" lon="8.533609000000014">
<ele>123</ele>
<time>2018-07-15T18:33:30Z</time>
</trkpt>
<trkpt lat="49.05201000000004" lon="8.533744000000015">
<ele>123.2</ele>
<time>2018-07-15T18:33:39Z</time>
</trkpt>
<trkpt lat="49.05204400000004" lon="8.533952000000015">
<ele>123.5</ele>
<time>2018-07-15T18:33:55Z</time>
</trkpt>
<trkpt lat="49.052025000000036" lon="8.534455000000015">
<ele>124.8</ele>
<time>2018-07-15T18:34:32Z</time>
</trkpt>
<trkpt lat="49.05201900000004" lon="8.534500000000016">
<ele>125</ele>
<time>2018-07-15T18:34:36Z</time>
</trkpt>
<trkpt lat="49.05199900000004" lon="8.534491000000015">
<ele>125.2</ele>
<time>2018-07-15T18:34:39Z</time>
</trkpt>
<trkpt lat="49.05194300000004" lon="8.534475000000015">
<ele>125.7</ele>
<time>2018-07-15T18:34:46Z</time>
</trkpt>
<trkpt lat="49.05192600000004" lon="8.534472000000015">
<ele>125.8</ele>
<time>2018-07-15T18:34:48Z</time>
</trkpt>
<trkpt lat="49.05186600000004" lon="8.534912000000014">
<ele>127.2</ele>
<time>2018-07-15T18:35:23Z</time>
</trkpt>
<trkpt lat="49.05182900000004" lon="8.535154000000015">
<ele>128.4</ele>
<time>2018-07-15T18:35:43Z</time>
</trkpt>
<trkpt lat="49.05179900000004" lon="8.535263000000015">
<ele>128.6</ele>
<time>2018-07-15T18:35:52Z</time>
</trkpt>
<trkpt lat="49.05175900000004" lon="8.535693000000014">
<ele>130.2</ele>
<time>2018-07-15T18:36:26Z</time>
</trkpt>
<trkpt lat="49.05177400000004" lon="8.535828000000015">
<ele>130.5</ele>
<time>2018-07-15T18:36:36Z</time>
</trkpt>
<trkpt lat="49.05169800000004" lon="8.535856000000015">
<ele>130.8</ele>
<time>2018-07-15T18:36:45Z</time>
</trkpt>
<trkpt lat="49.051564000000035" lon="8.535896000000015">
<ele>131.9</ele>
<time>2018-07-15T18:37:02Z</time>
</trkpt>
<trkpt lat="49.051392000000035" lon="8.536012000000015">
<ele>132.5</ele>
<time>2018-07-15T18:37:23Z</time>
</trkpt>
<trkpt lat="49.05123300000004" lon="8.536164000000015">
<ele>133.9</ele>
<time>2018-07-15T18:37:46Z</time>
</trkpt>
<trkpt lat="49.05120000000004" lon="8.536316000000015">
<ele>134.20000000000002</ele>
<time>2018-07-15T18:37:58Z</time>
</trkpt>
<trkpt lat="49.05122200000004" lon="8.536503000000016">
<ele>134.70000000000002</ele>
<time>2018-07-15T18:38:12Z</time>
</trkpt>
<trkpt lat="49.05125800000004" lon="8.536666000000016">
<ele>135.60000000000002</ele>
<time>2018-07-15T18:38:27Z</time>
</trkpt>
<trkpt lat="49.05121200000004" lon="8.537461000000016">
<ele>138.20000000000002</ele>
<time>2018-07-15T18:39:28Z</time>
</trkpt>
<trkpt lat="49.05115700000004" lon="8.537773000000016">
<ele>139.9</ele>
<time>2018-07-15T18:39:55Z</time>
</trkpt>
<trkpt lat="49.05109700000004" lon="8.538025000000015">
<ele>140.70000000000002</ele>
<time>2018-07-15T18:40:16Z</time>
</trkpt>
<trkpt lat="49.05085600000004" lon="8.538688000000015">
<ele>143.4</ele>
<time>2018-07-15T18:41:15Z</time>
</trkpt>
<trkpt lat="49.050725000000035" lon="8.538697000000015">
<ele>144.70000000000002</ele>
<time>2018-07-15T18:41:32Z</time>
</trkpt>
<trkpt lat="49.050652000000035" lon="8.538847000000015">
<ele>145.60000000000002</ele>
<time>2018-07-15T18:41:47Z</time>
</trkpt>
<trkpt lat="49.05063600000003" lon="8.538914000000014">
<ele>145.50000000000003</ele>
<time>2018-07-15T18:41:52Z</time>
</trkpt>
<trkpt lat="49.05060800000003" lon="8.538981000000014">
<ele>145.60000000000002</ele>
<time>2018-07-15T18:41:58Z</time>
</trkpt>
<trkpt lat="49.05062000000003" lon="8.538902000000014">
<ele>146.20000000000002</ele>
<time>2018-07-15T18:42:05Z</time>
</trkpt>
<trkpt lat="49.05064500000003" lon="8.538751000000014">
<ele>147.00000000000003</ele>
<time>2018-07-15T18:42:18Z</time>
</trkpt>
<trkpt lat="49.05053900000003" lon="8.538803000000014">
<ele>147.70000000000002</ele>
<time>2018-07-15T18:42:32Z</time>
</trkpt>
<trkpt lat="49.050512000000026" lon="8.538773000000013">
<ele>147.60000000000002</ele>
<time>2018-07-15T18:42:35Z</time>
</trkpt>
<trkpt lat="49.05053300000002" lon="8.538714000000013">
<ele>147.50000000000003</ele>
<time>2018-07-15T18:42:40Z</time>
</trkpt>
<trkpt lat="49.05048000000002" lon="8.538662000000013">
<ele>148.20000000000002</ele>
<time>2018-07-15T18:42:48Z</time>
</trkpt>
<trkpt lat="49.05045600000002" lon="8.538700000000013">
<ele>148.4</ele>
<time>2018-07-15T18:42:53Z</time>
</trkpt>
<trkpt lat="49.050418000000015" lon="8.538795000000013">
<ele>149</ele>
<time>2018-07-15T18:43:02Z</time>
</trkpt>
<trkpt lat="49.050336000000016" lon="8.538928000000013">
<ele>149.6</ele>
<time>2018-07-15T18:43:16Z</time>
</trkpt>
<trkpt lat="49.05020500000001" lon="8.538998000000012">
<ele>150.2</ele>
<time>2018-07-15T18:43:32Z</time>
</trkpt>
<trkpt lat="49.05015800000001" lon="8.539072000000012">
<ele>150.7</ele>
<time>2018-07-15T18:43:40Z</time>
</trkpt>
<trkpt lat="49.05010300000001" lon="8.539095000000012">
<ele>151.1</ele>
<time>2018-07-15T18:43:48Z</time>
</trkpt>
<trkpt lat="49.04999900000001" lon="8.539273000000012">
<ele>151.29999999999998</ele>
<time>2018-07-15T18:44:04Z</time>
</trkpt>
<trkpt lat="49.049971000000006" lon="8.539316000000012">
<ele>151.79999999999998</ele>
<time>2018-07-15T18:44:09Z</time>
</trkpt>
<trkpt lat="49.049933" lon="8.539239000000013">
<ele>152.2</ele>
<time>2018-07-15T18:44:17Z</time>
</trkpt>
<trkpt lat="49.049974000000006" lon="8.539145000000012">
<ele>152.7</ele>
<time>2018-07-15T18:44:26Z</time>
</trkpt>
<trkpt lat="49.04989500000001" lon="8.539069000000012">
<ele>153.29999999999998</ele>
<time>2018-07-15T18:44:38Z</time>
</trkpt>
<trkpt lat="49.049786000000005" lon="8.539250000000012">
<ele>153.6</ele>
<time>2018-07-15T18:44:55Z</time>
</trkpt>
<trkpt lat="49.049657" lon="8.539641000000012">
<ele>154.5</ele>
<time>2018-07-15T18:45:27Z</time>
</trkpt>
<trkpt lat="49.049536" lon="8.539852000000012">
<ele>156</ele>
<time>2018-07-15T18:45:50Z</time>
</trkpt>
<trkpt lat="49.049398000000004" lon="8.540296000000012">
<ele>157.4</ele>
<time>2018-07-15T18:46:28Z</time>
</trkpt>
<trkpt lat="49.049221" lon="8.540609000000012">
<ele>158.9</ele>
<time>2018-07-15T18:47:00Z</time>
</trkpt>
<trkpt lat="49.048984000000004" lon="8.541162000000012">
<ele>160.6</ele>
<time>2018-07-15T18:47:49Z</time>
</trkpt>
<trkpt lat="49.049054000000005" lon="8.541285000000013">
<ele>160.9</ele>
<time>2018-07-15T18:48:01Z</time>
</trkpt>
<trkpt lat="49.049111" lon="8.541315000000013">
<ele>160.70000000000002</ele>
<time>2018-07-15T18:48:07Z</time>
</trkpt>
<trkpt lat="49.048999" lon="8.541424000000013">
<ele>162.3</ele>
<time>2018-07-15T18:48:26Z</time>
</trkpt>
<trkpt lat="49.048855" lon="8.541673000000014">
<ele>162.9</ele>
<time>2018-07-15T18:48:50Z</time>
</trkpt>
<trkpt lat="49.048749" lon="8.541772000000014">
<ele>164.5</ele>
<time>2018-07-15T18:49:08Z</time>
</trkpt>
<trkpt lat="49.047889" lon="8.542274000000013">
<ele>172.2</ele>
<time>2018-07-15T18:51:07Z</time>
</trkpt>
<trkpt lat="49.047689" lon="8.542341000000013">
<ele>174.89999999999998</ele>
<time>2018-07-15T18:51:37Z</time>
</trkpt>
<trkpt lat="49.047325" lon="8.542236000000013">
<ele>178.39999999999998</ele>
<time>2018-07-15T18:52:26Z</time>
</trkpt>
<trkpt lat="49.046872" lon="8.541854000000013">
<ele>182.79999999999998</ele>
<time>2018-07-15T18:53:33Z</time>
</trkpt>
<trkpt lat="49.046827" lon="8.541942000000013">
<ele>183.29999999999998</ele>
<time>2018-07-15T18:53:42Z</time>
</trkpt>
<trkpt lat="49.047223" lon="8.542651000000014">
<ele>187.39999999999998</ele>
<time>2018-07-15T18:54:57Z</time>
</trkpt>
<trkpt lat="49.04739" lon="8.543006000000014">
<ele>189.29999999999998</ele>
<time>2018-07-15T18:55:32Z</time>
</trkpt>
<trkpt lat="49.047407" lon="8.543147000000014">
<ele>189.99999999999997</ele>
<time>2018-07-15T18:55:44Z</time>
</trkpt>
<trkpt lat="49.04738" lon="8.543301000000014">
<ele>190.79999999999998</ele>
<time>2018-07-15T18:55:57Z</time>
</trkpt>
<trkpt lat="49.047276999999994" lon="8.543420000000014">
<ele>191.6</ele>
<time>2018-07-15T18:56:13Z</time>
</trkpt>
<trkpt lat="49.04683299999999" lon="8.543627000000013">
<ele>195.2</ele>
<time>2018-07-15T18:57:12Z</time>
</trkpt>
<trkpt lat="49.046564999999994" lon="8.543655000000014">
<ele>197.1</ele>
<time>2018-07-15T18:57:45Z</time>
</trkpt>
<trkpt lat="49.04639699999999" lon="8.543637000000013">
<ele>198.5</ele>
<time>2018-07-15T18:58:07Z</time>
</trkpt>
<trkpt lat="49.046330999999995" lon="8.543630000000013">
<ele>199</ele>
<time>2018-07-15T18:58:15Z</time>
</trkpt>
<trkpt lat="49.04556099999999" lon="8.543608000000013">
<ele>204.8</ele>
<time>2018-07-15T18:59:52Z</time>
</trkpt>
<trkpt lat="49.045283999999995" lon="8.543426000000013">
<ele>207.3</ele>
<time>2018-07-15T19:00:31Z</time>
</trkpt>
<trkpt lat="49.045224" lon="8.543345000000013">
<ele>208</ele>
<time>2018-07-15T19:00:41Z</time>
</trkpt>
<trkpt lat="49.045139999999996" lon="8.543094000000012">
<ele>209.6</ele>
<time>2018-07-15T19:01:05Z</time>
</trkpt>
<trkpt lat="49.045033" lon="8.542946000000013">
<ele>210.7</ele>
<time>2018-07-15T19:01:23Z</time>
</trkpt>
<trkpt lat="49.044816999999995" lon="8.542805000000014">
<ele>212.29999999999998</ele>
<time>2018-07-15T19:01:52Z</time>
</trkpt>
<trkpt lat="49.044622999999994" lon="8.542384000000014">
<ele>214.1</ele>
<time>2018-07-15T19:02:32Z</time>
</trkpt>
<trkpt lat="49.04449399999999" lon="8.542202000000014">
<ele>214.9</ele>
<time>2018-07-15T19:02:53Z</time>
</trkpt>
<trkpt lat="49.044045999999994" lon="8.542109000000014">
<ele>216.4</ele>
<time>2018-07-15T19:03:43Z</time>
</trkpt>
<trkpt lat="49.043606999999994" lon="8.542837000000015">
<ele>217.70000000000002</ele>
<time>2018-07-15T19:04:53Z</time>
</trkpt>
<trkpt lat="49.042821999999994" lon="8.544124000000014">
<ele>218.4</ele>
<time>2018-07-15T19:06:51Z</time>
</trkpt>
<trkpt lat="49.042621" lon="8.545027000000013">
<ele>218.70000000000002</ele>
<time>2018-07-15T19:07:55Z</time>
</trkpt>
<trkpt lat="49.042300999999995" lon="8.546484000000014">
<ele>218.60000000000002</ele>
<time>2018-07-15T19:09:36Z</time>
</trkpt>
<trkpt lat="49.04164899999999" lon="8.545406000000014">
<ele>217.00000000000003</ele>
<time>2018-07-15T19:11:16Z</time>
</trkpt>
<trkpt lat="49.04131499999999" lon="8.544745000000015">
<ele>215.10000000000002</ele>
<time>2018-07-15T19:12:14Z</time>
</trkpt>
<trkpt lat="49.04067299999999" lon="8.543851000000014">
<ele>211.8</ele>
<time>2018-07-15T19:13:48Z</time>
</trkpt>
<trkpt lat="49.04021799999999" lon="8.543395000000015">
<ele>210</ele>
<time>2018-07-15T19:14:46Z</time>
</trkpt>
</trkseg>
</trk>
</gpx>
